| time (UTC) | temp F | wind direction | speed MPH | gust MPH | rain 1hr in | rain 24hr in | rain mn in | humidity % | barometer mb |
| 20260904221803 | 55 | 157 | 8.0 | 17.0 | 0.04 | 0.50 | 0.50 | 92 | 1005.1 |
| 20260904220924 | 55 | 157 | 8.0 | 17.0 | 0.05 | 0.50 | 0.50 | 92 | 1005.5 |
| 20260904220003 | 55 | 157 | 7.0 | 15.0 | 0.06 | 0.50 | 0.50 | 92 | 1005.5 |
| 20260904215403 | 55 | 157 | 8.0 | 18.0 | 0.07 | 0.50 | 0.50 | 91 | 1004.7 |
| 20260904214503 | 55 | 157 | 7.0 | 17.0 | 0.08 | 0.49 | 0.49 | 91 | 1004.8 |
| 20260904213603 | 55 | 157 | 7.0 | 15.0 | 0.09 | 0.48 | 0.49 | 91 | 1004.9 |
| 20260904212703 | 55 | 157 | 6.0 | 15.0 | 0.08 | 0.47 | 0.47 | 91 | 1005.4 |
| 20260904211803 | 55 | 157 | 5.0 | 13.0 | 0.08 | 0.46 | 0.46 | 90 | 1005.8 |
| 20260904210903 | 55 | 157 | 6.0 | 12.0 | 0.07 | 0.45 | 0.45 | 90 | 1005.9 |
| 20260904210024 | 56 | 157 | 6.0 | 19.0 | 0.06 | 0.44 | 0.44 | 90 | 1006.0 |
| 20260904205403 | 56 | 157 | 6.0 | 16.0 | 0.05 | 0.43 | 0.43 | 90 | 1006.1 |
| 20260904204503 | 56 | 157 | 6.0 | 13.0 | 0.03 | 0.41 | 0.41 | 89 | 1006.3 |
| 20260904203603 | 56 | 157 | 6.0 | 18.0 | 0.01 | 0.39 | 0.39 | 89 | 1006.0 |
| 20260904202724 | 56 | 157 | 7.0 | 13.0 | 0.02 | 0.39 | 0.39 | 90 | 1005.9 |
| 20260904201824 | 56 | 157 | 7.0 | 14.0 | 0.03 | 0.38 | 0.38 | 90 | 1006.0 |
| 20260904200903 | 56 | 157 | 7.0 | 20.0 | 0.05 | 0.38 | 0.38 | 90 | 1005.6 |
| 20260904200003 | 56 | 157 | 6.0 | 14.0 | 0.06 | 0.38 | 0.38 | 90 | 1005.8 |
| 20260904195403 | 56 | 157 | 6.0 | 17.0 | 0.06 | 0.38 | 0.38 | 90 | 1005.8 |
| 20260904194503 | 56 | 157 | 6.0 | 17.0 | 0.06 | 0.38 | 0.38 | 90 | 1006.0 |
| 20260904193624 | 56 | 157 | 6.0 | 14.0 | 0.08 | 0.38 | 0.38 | 90 | 1006.5 |
| 20260904192703 | 56 | 157 | 8.0 | 14.0 | 0.13 | 0.37 | 0.37 | 89 | 1006.6 |
| 20260904191803 | 56 | 157 | 8.0 | 16.0 | 0.13 | 0.35 | 0.35 | 89 | 1006.5 |
| 20260904190903 | 56 | 157 | 8.0 | 16.0 | 0.11 | 0.33 | 0.33 | 89 | 1006.6 |
| 20260904190003 | 56 | 157 | 8.0 | 25.0 | 0.10 | 0.32 | 0.32 | 89 | 1006.7 |
| 20260904185403 | 56 | 157 | 9.0 | 18.0 | 0.10 | 0.32 | 0.32 | 89 | 1006.7 |
| 20260904184503 | 56 | 157 | 12.0 | 24.0 | 0.10 | 0.32 | 0.32 | 89 | 1007.1 |
| 20260904183603 | 56 | 157 | 11.0 | 24.0 | 0.08 | 0.31 | 0.31 | 88 | 1006.8 |
| 20260904182703 | 57 | 157 | 12.0 | 23.0 | 0.02 | 0.25 | 0.25 | 87 | 1006.8 |
| 20260904181824 | 57 | 157 | 12.0 | 31.0 | 0.01 | 0.23 | 0.23 | 88 | 1005.9 |
| 20260904180903 | 56 | 157 | 12.0 | 24.0 | 0.01 | 0.23 | 0.23 | 89 | 1005.6 |
| 20260904180002 | 56 | 157 | 11.0 | 24.0 | 0.01 | 0.23 | 0.23 | 89 | 1006.0 |
| 20260904175403 | 56 | 157 | 12.0 | 27.0 | 0.01 | 0.23 | 0.23 | 89 | 1006.1 |
| 20260904174503 | 56 | 157 | 10.0 | 27.0 | 0.02 | 0.23 | 0.23 | 90 | 1006.2 |
| 20260904173602 | 56 | 157 | 11.0 | 24.0 | 0.03 | 0.23 | 0.23 | 90 | 1006.6 |
| 20260904172702 | 56 | 157 | 11.0 | 23.0 | 0.06 | 0.23 | 0.23 | 90 | 1006.6 |
| 20260904171802 | 56 | 157 | 13.0 | 29.0 | 0.07 | 0.22 | 0.22 | 90 | 1006.9 |
| 20260904170903 | 56 | 157 | 14.0 | 30.0 | 0.08 | 0.22 | 0.22 | 90 | 1007.1 |
| 20260904170003 | 56 | 157 | 12.0 | 29.0 | 0.10 | 0.22 | 0.22 | 90 | 1007.2 |
| 20260904165402 | 56 | 157 | 11.0 | 25.0 | 0.11 | 0.22 | 0.22 | 90 | 1007.7 |
| 20260904164524 | 55 | 157 | 12.0 | 23.0 | 0.11 | 0.21 | 0.21 | 90 | 1007.8 |
| 20260904163603 | 56 | 157 | 13.0 | 23.0 | 0.10 | 0.20 | 0.20 | 90 | 1008.2 |
| 20260904162702 | 56 | 157 | 12.0 | 25.0 | 0.08 | 0.17 | 0.17 | 90 | 1008.6 |
| 20260904161823 | 56 | 157 | 11.0 | 23.0 | 0.07 | 0.15 | 0.15 | 89 | 1008.9 |
| 20260904160903 | 56 | 157 | 11.0 | 24.0 | 0.07 | 0.14 | 0.14 | 89 | 1008.7 |
| 20260904160003 | 56 | 157 | 10.0 | 29.0 | 0.05 | 0.12 | 0.12 | 89 | 1008.9 |
| 20260904155403 | 56 | 157 | 10.0 | 23.0 | 0.04 | 0.11 | 0.11 | 89 | 1008.9 |
| 20260904154502 | 56 | 157 | 11.0 | 24.0 | 0.03 | 0.10 | 0.10 | 89 | 1009.0 |
| 20260904153602 | 56 | 157 | 11.0 | 26.0 | 0.05 | 0.10 | 0.10 | 89 | 1009.4 |
| 20260904152703 | 56 | 157 | 12.0 | 26.0 | 0.05 | 0.09 | 0.09 | 88 | 1009.6 |
| 20260904151803 | 56 | 157 | 11.0 | 24.0 | 0.06 | 0.08 | 0.08 | 88 | 1009.5 |
| 20260904150903 | 56 | 157 | 10.0 | 24.0 | 0.06 | 0.07 | 0.07 | 88 | 1009.4 |
| 20260904150003 | 56 | 157 | 10.0 | 20.0 | 0.07 | 0.07 | 0.07 | 88 | 1010.0 |
| 20260904145402 | 56 | 157 | 10.0 | 24.0 | 0.07 | 0.07 | 0.07 | 88 | 1010.0 |
| 20260904144503 | 56 | 157 | 9.0 | 21.0 | 0.07 | 0.07 | 0.07 | 88 | 1010.0 |
| 20260904143603 | 56 | 157 | 9.0 | 17.0 | 0.05 | 0.05 | 0.05 | 87 | 1010.2 |
| 20260904142703 | 57 | 157 | 9.0 | 18.0 | 0.04 | 0.04 | 0.04 | 85 | 1010.5 |
| 20260904141802 | 57 | 157 | 8.0 | 25.0 | 0.02 | 0.02 | 0.02 | 84 | 1010.6 |
| 20260904140902 | 58 | 157 | 8.0 | 18.0 | 0.01 | 0.01 | 0.01 | 83 | 1010.7 |
| 20260904140004 | 58 | 157 | 10.0 | 22.0 | 0.00 | 0.00 | 0.00 | 81 | 1010.9 |
| 20260904135402 | 58 | 157 | 11.0 | 22.0 | 0.00 | 0.00 | 0.00 | 81 | 1010.7 |
| 20260904134503 | 58 | 157 | 11.0 | 22.0 | 0.00 | 0.00 | 0.00 | 81 | 1010.4 |
| 20260904133624 | 58 | 157 | 11.0 | 21.0 | 0.00 | 0.00 | 0.00 | 82 | 1010.5 |
| 20260904132724 | 57 | 157 | 9.0 | 21.0 | 0.00 | 0.00 | 0.00 | 84 | 1010.5 |
| 20260904131823 | 56 | 157 | 8.0 | 19.0 | 0.00 | 0.00 | 0.00 | 85 | 1010.7 |
| 20260904130923 | 56 | 157 | 10.0 | 20.0 | 0.00 | 0.00 | 0.00 | 85 | 1010.8 |
| 20260904130023 | 56 | 157 | 11.0 | 20.0 | 0.00 | 0.00 | 0.00 | 86 | 1010.9 |
| 20260904125402 | 56 | 157 | 10.0 | 22.0 | 0.00 | 0.00 | 0.00 | 86 | 1011.0 |
| 20260904124502 | 56 | 157 | 9.0 | 22.0 | 0.00 | 0.00 | 0.00 | 85 | 1011.1 |
| 20260904123602 | 56 | 157 | 9.0 | 20.0 | 0.00 | 0.00 | 0.00 | 83 | 1011.2 |
| 20260904122702 | 57 | 157 | 10.0 | 21.0 | 0.00 | 0.00 | 0.00 | 82 | 1011.5 |
| 20260904121802 | 57 | 157 | 9.0 | 22.0 | 0.00 | 0.00 | 0.00 | 81 | 1011.8 |
| 20260904120903 | 57 | 157 | 8.0 | 19.0 | 0.00 | 0.00 | 0.00 | 80 | 1012.0 |
| 20260904120002 | 57 | 157 | 7.0 | 17.0 | 0.00 | 0.00 | 0.00 | 80 | 1012.4 |
| 20260904115402 | 57 | 157 | 7.0 | 16.0 | 0.00 | 0.00 | 0.00 | 79 | 1012.7 |
| 20260904114502 | 57 | 157 | 8.0 | 16.0 | 0.00 | 0.00 | 0.00 | 79 | 1012.8 |
| 20260904113602 | 57 | 157 | 8.0 | 17.0 | 0.00 | 0.00 | 0.00 | 79 | 1012.8 |
| 20260904112702 | 57 | 157 | 9.0 | 18.0 | 0.00 | 0.00 | 0.00 | 79 | 1013.0 |
| 20260904111823 | 57 | 157 | 10.0 | 18.0 | 0.00 | 0.00 | 0.00 | 80 | 1013.1 |
| 20260904110902 | 57 | 157 | 11.0 | 26.0 | 0.00 | 0.00 | 0.00 | 79 | 1013.2 |
| 20260904110003 | 57 | 157 | 11.0 | 23.0 | 0.00 | 0.00 | 0.00 | 77 | 1013.1 |
| 20260904105402 | 57 | 157 | 11.0 | 20.0 | 0.00 | 0.00 | 0.00 | 76 | 1013.1 |
| 20260904104502 | 57 | 157 | 11.0 | 23.0 | 0.00 | 0.00 | 0.00 | 75 | 1013.1 |
| 20260904103602 | 57 | 157 | 10.0 | 21.0 | 0.00 | 0.00 | 0.00 | 75 | 1013.2 |
| 20260904102702 | 56 | 157 | 10.0 | 20.0 | 0.00 | 0.00 | 0.00 | 76 | 1013.3 |
| 20260904101823 | 57 | 157 | 11.0 | 27.0 | 0.00 | 0.00 | 0.00 | 75 | 1013.4 |
| 20260904095404 | 56 | 157 | 10.0 | 24.0 | 0.00 | 0.00 | 0.00 | 75 | 1013.4 |
| 20260904094504 | 56 | 157 | 9.0 | 23.0 | 0.00 | 0.00 | 0.00 | 75 | 1013.4 |
| 20260904093604 | 56 | 157 | 9.0 | 19.0 | 0.00 | 0.00 | 0.00 | 75 | 1013.3 |
| 20260904092704 | 56 | 157 | 8.0 | 19.0 | 0.00 | 0.00 | 0.00 | 75 | 1013.4 |
| 20260904091825 | 56 | 157 | 9.0 | 18.0 | 0.00 | 0.00 | 0.00 | 74 | 1013.4 |
| 20260904090904 | 56 | 157 | 10.0 | 21.0 | 0.00 | 0.00 | 0.00 | 74 | 1013.6 |
| 20260904090004 | 55 | 157 | 10.0 | 19.0 | 0.00 | 0.00 | 0.00 | 74 | 1013.5 |
| 20260904085404 | 55 | 157 | 9.0 | 21.0 | 0.00 | 0.00 | 0.00 | 74 | 1013.5 |
| 20260904084504 | 55 | 157 | 7.0 | 21.0 | 0.00 | 0.00 | 0.00 | 74 | 1013.5 |
| 20260904083603 | 55 | 157 | 10.0 | 17.0 | 0.00 | 0.00 | 0.00 | 74 | 1013.6 |
| 20260904082704 | 55 | 157 | 9.0 | 22.0 | 0.00 | 0.00 | 0.00 | 74 | 1013.7 |
| 20260904081803 | 55 | 157 | 8.0 | 17.0 | 0.00 | 0.00 | 0.00 | 74 | 1013.8 |
| 20260904080904 | 55 | 157 | 7.0 | 16.0 | 0.00 | 0.00 | 0.00 | 74 | 1013.9 |
| 20260904080004 | 56 | 157 | 7.0 | 15.0 | 0.00 | 0.00 | 0.00 | 73 | 1014.2 |
| 20260904075404 | 56 | 157 | 7.0 | 16.0 | 0.00 | 0.00 | 0.00 | 72 | 1014.3 |
| 20260904074504 | 56 | 157 | 7.0 | 17.0 | 0.00 | 0.00 | 0.00 | 72 | 1014.4 |
| 20260904073604 | 56 | 157 | 7.0 | 15.0 | 0.00 | 0.00 | 0.00 | 72 | 1014.3 |
| 20260904072703 | 56 | 157 | 7.0 | 17.0 | 0.00 | 0.00 | 0.00 | 72 | 1014.4 |
| 20260904071804 | 56 | 157 | 7.0 | 15.0 | 0.00 | 0.00 | 0.00 | 71 | 1014.4 |
| 20260904070904 | 57 | 157 | 7.0 | 16.0 | 0.00 | 0.00 | 0.00 | 71 | 1014.3 |
| 20260904070004 | 57 | 157 | 7.0 | 14.0 | 0.00 | 0.00 | 0.00 | 70 | 1014.4 |
| 20260904065403 | 57 | 157 | 7.0 | 17.0 | 0.00 | 0.00 | 0.00 | 70 | 1014.6 |
| 20260904064504 | 57 | 157 | 7.0 | 17.0 | 0.00 | 0.00 | 0.00 | 69 | 1014.7 |
| 20260904063604 | 58 | 157 | 6.0 | 14.0 | 0.00 | 0.00 | 0.00 | 69 | 1014.9 |
| 20260904062703 | 58 | 157 | 8.0 | 16.0 | 0.00 | 0.00 | 0.00 | 68 | 1015.0 |
| 20260904061803 | 58 | 157 | 7.0 | 18.0 | 0.00 | 0.00 | 0.00 | 67 | 1015.1 |
| 20260904060903 | 59 | 157 | 7.0 | 18.0 | 0.00 | 0.00 | 0.00 | 67 | 1015.2 |
| 20260904060024 | 59 | 157 | 8.0 | 13.0 | 0.00 | 0.00 | 0.00 | 65 | 1015.3 |
| 20260904055403 | 59 | 157 | 8.0 | 17.0 | 0.00 | 0.00 | 0.00 | 65 | 1015.3 |
| 20260904054503 | 59 | 157 | 8.0 | 20.0 | 0.00 | 0.00 | 0.00 | 65 | 1015.3 |
| 20260904053624 | 60 | 157 | 7.0 | 15.0 | 0.00 | 0.00 | 0.00 | 65 | 1015.4 |
| 20260904052703 | 60 | 157 | 7.0 | 14.0 | 0.00 | 0.00 | 0.00 | 64 | 1015.5 |
| 20260904051804 | 59 | 157 | 9.0 | 18.0 | 0.00 | 0.00 | 0.00 | 64 | 1015.5 |
| 20260904050904 | 59 | 157 | 9.0 | 20.0 | 0.00 | 0.00 | 0.00 | 63 | 1015.6 |
| 20260904050004 | 59 | 157 | 7.0 | 18.0 | 0.00 | 0.00 | 0.00 | 64 | 1015.7 |
| 20260904045404 | 59 | 157 | 7.0 | 17.0 | 0.00 | 0.00 | 0.00 | 64 | 1015.6 |
| 20260904044503 | 59 | 157 | 7.0 | 15.0 | 0.00 | 0.00 | 0.00 | 64 | 1015.7 |
| 20260904043604 | 60 | 157 | 7.0 | 12.0 | 0.00 | 0.00 | 0.00 | 63 | 1015.6 |
| 20260904042725 | 60 | 157 | 7.0 | 14.0 | 0.00 | 0.00 | 0.00 | 62 | 1015.6 |
| 20260904041803 | 60 | 157 | 8.0 | 17.0 | 0.00 | 0.00 | 0.00 | 63 | 1015.6 |
| 20260904040904 | 59 | 157 | 7.0 | 18.0 | 0.00 | 0.00 | 0.00 | 63 | 1015.7 |
| 20260904040003 | 59 | 157 | 6.0 | 13.0 | 0.00 | 0.00 | 0.00 | 62 | 1015.8 |
| 20260904035403 | 59 | 157 | 6.0 | 15.0 | 0.00 | 0.00 | 0.00 | 61 | 1015.9 |
| 20260904034503 | 59 | 157 | 8.0 | 16.0 | 0.00 | 0.00 | 0.00 | 62 | 1015.9 |
| 20260904033603 | 58 | 157 | 7.0 | 18.0 | 0.00 | 0.00 | 0.00 | 62 | 1016.1 |
| 20260904032703 | 58 | 157 | 6.0 | 19.0 | 0.00 | 0.00 | 0.00 | 60 | 1016.3 |
| 20260904031824 | 60 | 157 | 6.0 | 13.0 | 0.00 | 0.00 | 0.00 | 58 | 1016.4 |
| 20260904030903 | 60 | 157 | 7.0 | 17.0 | 0.00 | 0.00 | 0.00 | 59 | 1016.5 |
| 20260904030003 | 59 | 157 | 8.0 | 16.0 | 0.00 | 0.00 | 0.00 | 58 | 1016.6 |
| 20260904025424 | 59 | 157 | 8.0 | 18.0 | 0.00 | 0.00 | 0.00 | 59 | 1016.5 |
| 20260904024504 | 58 | 157 | 8.0 | 18.0 | 0.00 | 0.00 | 0.00 | 60 | 1016.7 |
| 20260904023604 | 57 | 157 | 7.0 | 18.0 | 0.00 | 0.00 | 0.00 | 63 | 1016.8 |
| 20260904022724 | 57 | 157 | 7.0 | 15.0 | 0.00 | 0.00 | 0.00 | 66 | 1017.0 |
| 20260904021804 | 58 | 157 | 7.0 | 15.0 | 0.00 | 0.00 | 0.00 | 64 | 1017.0 |
| 20260904020924 | 60 | 157 | 7.0 | 15.0 | 0.00 | 0.00 | 0.00 | 62 | 1017.1 |
| 20260904020004 | 60 | 157 | 7.0 | 15.0 | 0.00 | 0.00 | 0.00 | 59 | 1017.3 |
| 20260904015403 | 60 | 157 | 7.0 | 15.0 | 0.00 | 0.00 | 0.00 | 57 | 1017.3 |
| 20260904014504 | 59 | 157 | 7.0 | 14.0 | 0.00 | 0.04 | 0.00 | 58 | 1017.4 |
| 20260904013603 | 59 | 157 | 7.0 | 15.0 | 0.00 | 0.04 | 0.00 | 57 | 1017.5 |
| 20260904012703 | 59 | 157 | 7.0 | 15.0 | 0.00 | 0.04 | 0.00 | 59 | 1017.6 |
| 20260904011803 | 58 | 157 | 7.0 | 17.0 | 0.00 | 0.04 | 0.00 | 60 | 1018.0 |
| 20260904010903 | 56 | 157 | 7.0 | 17.0 | 0.00 | 0.04 | 0.00 | 62 | 1018.2 |
| 20260904010003 | 56 | 157 | 6.0 | 18.0 | 0.00 | 0.04 | 0.00 | 61 | 1018.4 |
| 20260904005403 | 56 | 157 | 6.0 | 18.0 | 0.00 | 0.04 | 0.00 | 61 | 1018.4 |
| 20260904004524 | 57 | 157 | 5.0 | 12.0 | 0.00 | 0.04 | 0.00 | 61 | 1018.6 |
| 20260904003603 | 57 | 157 | 5.0 | 17.0 | 0.00 | 0.04 | 0.00 | 60 | 1018.6 |
| 20260904002704 | 57 | 157 | 6.0 | 13.0 | 0.00 | 0.04 | 0.00 | 61 | 1018.6 |
| 20260904001803 | 56 | 157 | 7.0 | 13.0 | 0.00 | 0.04 | 0.00 | 63 | 1018.7 |
| 20260904000903 | 56 | 157 | 6.0 | 15.0 | 0.00 | 0.04 | 0.00 | 62 | 1018.8 |
| 20260904000004 | 56 | 157 | 5.0 | 14.0 | 0.00 | 0.04 | 0.00 | 63 | 1019.0 |
| 20260903235403 | 56 | 157 | 5.0 | 14.0 | 0.00 | 0.04 | 0.00 | 63 | 1019.3 |
| 20260903234503 | 56 | 157 | 5.0 | 14.0 | 0.00 | 0.04 | 0.00 | 63 | 1019.4 |
| 20260903233603 | 55 | 157 | 6.0 | 14.0 | 0.00 | 0.04 | 0.00 | 64 | 1019.4 |
| 20260903232724 | 55 | 157 | 5.0 | 14.0 | 0.00 | 0.04 | 0.00 | 64 | 1019.3 |
| 20260903231803 | 54 | 157 | 5.0 | 10.0 | 0.00 | 0.04 | 0.00 | 67 | 1019.3 |
| 20260903230903 | 53 | 157 | 6.0 | 13.0 | 0.00 | 0.04 | 0.00 | 67 | 1019.4 |
| 20260903230003 | 53 | 157 | 4.0 | 13.0 | 0.00 | 0.04 | 0.00 | 66 | 1019.4 |
| 20260903225403 | 53 | 157 | 4.0 | 11.0 | 0.00 | 0.04 | 0.00 | 67 | 1019.4 |
| 20260903224503 | 52 | 157 | 5.0 | 13.0 | 0.00 | 0.04 | 0.00 | 68 | 1019.4 |
| 20260903223603 | 52 | 157 | 3.0 | 10.0 | 0.00 | 0.04 | 0.00 | 69 | 1019.2 |
| 20260903222703 | 51 | 157 | 4.0 | 10.0 | 0.00 | 0.04 | 0.00 | 71 | 1019.2 |